Time;durP1;ratioP1;P1;durP2;ratioP2;P2;SDS_P1;SDS_P2;PMS_P1;PMS_P2;Temp;Humidity;BMP_temperature;BMP_pressure;BME280_temperature;BME280_humidity;BME280_pressure;Samples;Min_cycle;Max_cycle;Signal;HPM_P1;HPM_P2
2023/11/15 02:13:25;;;;;;;1999.90;999.90;;;;;;;;;;5949229;23;20256;-70
2023/11/15 02:16:10;;;;;;;1999.90;999.90;;;;;;;;;;4966922;28;20245;-70
2023/11/15 02:18:56;;;;;;;1999.90;999.90;;;;;;;;;;4973518;28;20352;-71
2023/11/15 02:21:41;;;;;;;1999.90;999.90;;;;;;;;;;4971147;28;20267;-70
2023/11/15 02:24:27;;;;;;;1999.90;999.90;;;;;;;;;;4959969;28;20368;-71
2023/11/15 02:27:12;;;;;;;1999.90;999.90;;;;;;;;;;4954188;29;20212;-70
2023/11/15 02:29:57;;;;;;;1999.90;999.90;;;;;;;;;;4954330;29;20209;-71
2023/11/15 02:32:43;;;;;;;1999.90;999.90;;;;;;;;;;4953954;29;20274;-70
2023/11/15 02:35:28;;;;;;;1999.90;999.90;;;;;;;;;;4946916;29;20273;-70
2023/11/15 02:38:13;;;;;;;1999.90;999.90;;;;;;;;;;4934711;29;20252;-70
2023/11/15 02:40:59;;;;;;;1999.90;999.90;;;;;;;;;;4934819;29;20220;-70
2023/11/15 02:43:44;;;;;;;1999.90;999.90;;;;;;;;;;4935065;29;20246;-71
2023/11/15 02:46:29;;;;;;;1999.90;999.90;;;;;;;;;;4934934;29;20741;-70
2023/11/15 02:49:14;;;;;;;1999.90;999.90;;;;;;;;;;4947823;29;20332;-71
2023/11/15 02:51:59;;;;;;;1999.90;999.90;;;;;;;;;;4942169;29;20729;-71
2023/11/15 02:54:44;;;;;;;1999.90;999.90;;;;;;;;;;4934155;29;20237;-70
2023/11/15 02:57:30;;;;;;;1999.90;999.90;;;;;;;;;;4942474;29;20236;-70
2023/11/15 03:00:16;;;;;;;1999.90;999.90;;;;;;;;;;4947661;29;20594;-71
2023/11/15 03:03:02;;;;;;;1999.90;999.90;;;;;;;;;;4934572;29;20213;-71
2023/11/15 03:05:46;;;;;;;1999.90;999.90;;;;;;;;;;4934604;29;20217;-70
2023/11/15 03:08:32;;;;;;;1999.90;999.90;;;;;;;;;;4946788;29;20758;-71
2023/11/15 03:11:17;;;;;;;1999.90;999.90;;;;;;;;;;4947392;29;20582;-70
2023/11/15 03:14:03;;;;;;;1999.90;999.90;;;;;;;;;;4942711;28;20313;-71
2023/11/15 03:16:49;;;;;;;1999.90;999.90;;;;;;;;;;4933803;29;20555;-70
2023/11/15 03:19:34;;;;;;;1999.90;999.90;;;;;;;;;;4949689;29;20315;-71
2023/11/15 03:22:20;;;;;;;1999.90;999.90;;;;;;;;;;4946912;29;20206;-71
2023/11/15 03:25:06;;;;;;;1999.90;999.90;;;;;;;;;;4942271;29;20237;-71
2023/11/15 03:27:52;;;;;;;1999.90;999.90;;;;;;;;;;4951795;29;20220;-70
2023/11/15 03:30:39;;;;;;;1999.90;999.90;;;;;;;;;;4953415;29;20711;-70
2023/11/15 03:33:24;;;;;;;1999.90;999.90;;;;;;;;;;4947839;29;20243;-71
2023/11/15 03:36:10;;;;;;;1999.90;999.90;;;;;;;;;;4934454;29;20329;-70
2023/11/15 03:38:55;;;;;;;1999.90;999.90;;;;;;;;;;4934195;29;20362;-71
2023/11/15 03:41:40;;;;;;;1999.90;999.90;;;;;;;;;;4949805;29;20215;-71
2023/11/15 03:44:25;;;;;;;1999.90;999.90;;;;;;;;;;4953493;28;20237;-71
2023/11/15 03:47:11;;;;;;;1999.90;999.90;;;;;;;;;;4945659;29;20212;-71
2023/11/15 03:49:56;;;;;;;1999.90;999.90;;;;;;;;;;4945544;29;20305;-70
2023/11/15 03:52:41;;;;;;;1999.90;999.90;;;;;;;;;;4945720;29;20294;-71
2023/11/15 03:55:25;;;;;;;1999.90;999.90;;;;;;;;;;4947895;29;20601;-71
2023/11/15 03:58:10;;;;;;;1999.90;999.90;;;;;;;;;;4945660;29;20228;-70
2023/11/15 04:00:59;;;;;;;1999.90;999.90;;;;;;;;;;4953171;29;20240;-71
2023/11/15 04:03:46;;;;;;;1999.90;999.90;;;;;;;;;;4953289;28;20237;-71
2023/11/15 04:06:31;;;;;;;1999.90;999.90;;;;;;;;;;4953088;28;20260;-70
2023/11/15 04:09:16;;;;;;;1999.90;999.90;;;;;;;;;;4952563;29;20318;-71
2023/11/15 04:12:01;;;;;;;1999.90;999.90;;;;;;;;;;4956917;28;20212;-71
2023/11/15 04:14:46;;;;;;;1999.90;999.90;;;;;;;;;;4963203;28;20383;-70
2023/11/15 04:17:31;;;;;;;1999.90;999.90;;;;;;;;;;4958827;28;20216;-70
2023/11/15 04:20:17;;;;;;;1999.90;999.90;;;;;;;;;;4949853;29;20211;-71
2023/11/15 04:23:02;;;;;;;1999.90;999.90;;;;;;;;;;4959817;28;20283;-70
2023/11/15 04:25:47;;;;;;;1999.90;999.90;;;;;;;;;;4956648;29;20212;-70
2023/11/15 04:28:32;;;;;;;1999.90;999.90;;;;;;;;;;4961375;28;20209;-71
2023/11/15 04:31:17;;;;;;;1999.90;999.90;;;;;;;;;;4941812;28;20222;-71
2023/11/15 04:34:02;;;;;;;1999.90;999.90;;;;;;;;;;4957599;28;20348;-70
2023/11/15 04:36:49;;;;;;;1999.90;999.90;;;;;;;;;;4957361;28;20263;-71
2023/11/15 04:39:34;;;;;;;1999.90;999.90;;;;;;;;;;4954797;29;20469;-70
2023/11/15 04:42:20;;;;;;;1999.90;999.90;;;;;;;;;;4959880;28;20208;-71
2023/11/15 04:45:06;;;;;;;1999.90;999.90;;;;;;;;;;4956268;28;20866;-71
2023/11/15 04:47:51;;;;;;;1999.90;999.90;;;;;;;;;;4961551;28;20366;-70
2023/11/15 04:50:36;;;;;;;1999.90;999.90;;;;;;;;;;4956239;29;20573;-70
2023/11/15 04:53:24;;;;;;;1999.90;999.90;;;;;;;;;;4949194;28;20718;-70
2023/11/15 04:56:09;;;;;;;1999.90;999.90;;;;;;;;;;4955726;28;20213;-71
2023/11/15 04:58:54;;;;;;;1999.90;999.90;;;;;;;;;;4955947;29;20231;-71
2023/11/15 05:01:41;;;;;;;1999.90;999.90;;;;;;;;;;4958508;28;20279;-70
2023/11/15 05:04:26;;;;;;;1999.90;999.90;;;;;;;;;;4956138;28;20373;-70
2023/11/15 05:07:12;;;;;;;1999.90;999.90;;;;;;;;;;4961981;28;20293;-70
2023/11/15 05:09:58;;;;;;;1999.90;999.90;;;;;;;;;;4955953;29;20207;-71
2023/11/15 05:12:43;;;;;;;1999.90;999.90;;;;;;;;;;4955249;28;20210;-70
2023/11/15 05:15:28;;;;;;;1999.90;999.90;;;;;;;;;;4936768;28;20216;-69
2023/11/15 05:18:15;;;;;;;1999.90;999.90;;;;;;;;;;4954820;28;20212;-70
2023/11/15 05:21:00;;;;;;;1999.90;999.90;;;;;;;;;;4957998;28;20209;-71
2023/11/15 05:23:44;;;;;;;1999.90;999.90;;;;;;;;;;4955289;28;20250;-71
2023/11/15 05:26:31;;;;;;;1999.90;999.90;;;;;;;;;;4958661;28;20354;-70
2023/11/15 05:29:15;;;;;;;1999.90;999.90;;;;;;;;;;4955516;29;20322;-70
2023/11/15 05:32:00;;;;;;;1999.90;999.90;;;;;;;;;;4959338;28;20268;-70
2023/11/15 05:34:45;;;;;;;1999.90;999.90;;;;;;;;;;4955423;28;20339;-70
2023/11/15 05:37:30;;;;;;;1999.90;999.90;;;;;;;;;;4960836;28;20218;-70
2023/11/15 05:40:16;;;;;;;1999.90;999.90;;;;;;;;;;4955721;28;20993;-70
2023/11/15 05:43:02;;;;;;;1999.90;999.90;;;;;;;;;;4957083;28;20684;-69
2023/11/15 05:45:47;;;;;;;1999.90;999.90;;;;;;;;;;4961193;28;20218;-70
2023/11/15 05:48:33;;;;;;;1999.90;999.90;;;;;;;;;;4955176;29;20211;-70
2023/11/15 05:51:18;;;;;;;1999.90;999.90;;;;;;;;;;4954226;28;20205;-70
2023/11/15 05:54:04;;;;;;;1999.90;999.90;;;;;;;;;;4954994;28;20325;-70
2023/11/15 05:56:49;;;;;;;1999.90;999.90;;;;;;;;;;4961883;28;20296;-70
2023/11/15 05:59:36;;;;;;;1999.90;999.90;;;;;;;;;;4947860;29;20440;-70
2023/11/15 06:02:20;;;;;;;1999.90;999.90;;;;;;;;;;4959736;28;20220;-70
2023/11/15 06:05:06;;;;;;;1999.90;999.90;;;;;;;;;;4957340;28;20251;-70
2023/11/15 06:07:51;;;;;;;1999.90;999.90;;;;;;;;;;4954583;29;20205;-70
2023/11/15 06:10:36;;;;;;;1999.90;999.90;;;;;;;;;;4956801;28;20225;-70
2023/11/15 06:13:21;;;;;;;1999.90;999.90;;;;;;;;;;4955235;28;20843;-70
2023/11/15 06:16:08;;;;;;;1999.90;999.90;;;;;;;;;;4957514;28;20207;-71
2023/11/15 06:18:54;;;;;;;1999.90;999.90;;;;;;;;;;4941333;29;20779;-70
2023/11/15 06:21:43;;;;;;;1999.90;999.90;;;;;;;;;;4938242;29;20355;-70
2023/11/15 06:24:29;;;;;;;1999.90;999.90;;;;;;;;;;4942806;29;20233;-70
2023/11/15 06:27:14;;;;;;;1999.90;999.90;;;;;;;;;;4944979;29;20239;-70
2023/11/15 06:29:59;;;;;;;1999.90;999.90;;;;;;;;;;4952907;28;20257;-70
2023/11/15 06:32:45;;;;;;;1999.90;999.90;;;;;;;;;;4953885;28;20329;-70
2023/11/15 06:35:30;;;;;;;1999.90;999.90;;;;;;;;;;4954394;29;20288;-70
2023/11/15 06:38:15;;;;;;;1999.90;999.90;;;;;;;;;;4951991;29;20260;-70
2023/11/15 06:41:01;;;;;;;1999.90;999.90;;;;;;;;;;4943109;29;20220;-69
2023/11/15 06:43:46;;;;;;;1999.90;999.90;;;;;;;;;;4954139;28;20335;-69
2023/11/15 06:46:31;;;;;;;1999.90;999.90;;;;;;;;;;4947225;29;20677;-70
2023/11/15 06:49:18;;;;;;;1999.90;999.90;;;;;;;;;;4954108;29;20209;-71
2023/11/15 06:52:05;;;;;;;1999.90;999.90;;;;;;;;;;4952928;28;20210;-71
2023/11/15 06:54:52;;;;;;;1999.90;999.90;;;;;;;;;;4942423;29;20225;-70
2023/11/15 06:57:37;;;;;;;1999.90;999.90;;;;;;;;;;4948687;29;20217;-69
2023/11/15 07:00:25;;;;;;;1999.90;999.90;;;;;;;;;;4935085;29;20233;-69
2023/11/15 07:03:12;;;;;;;1999.90;999.90;;;;;;;;;;4934983;29;20328;-69
2023/11/15 07:05:58;;;;;;;1999.90;999.90;;;;;;;;;;4942745;29;20312;-69
2023/11/15 07:08:43;;;;;;;1999.90;999.90;;;;;;;;;;4954094;29;20211;-70
2023/11/15 07:11:28;;;;;;;1999.90;999.90;;;;;;;;;;4953097;29;20594;-70
2023/11/15 07:14:15;;;;;;;1999.90;999.90;;;;;;;;;;4953228;28;20240;-68
2023/11/15 07:17:00;;;;;;;1999.90;999.90;;;;;;;;;;4946596;29;20235;-70
2023/11/15 07:19:47;;;;;;;1999.90;999.90;;;;;;;;;;4952180;28;20244;-69
2023/11/15 07:22:35;;;;;;;1999.90;999.90;;;;;;;;;;4948779;29;20424;-69
2023/11/15 07:25:22;;;;;;;1999.90;999.90;;;;;;;;;;4952580;29;20220;-69
2023/11/15 07:28:09;;;;;;;1999.90;999.90;;;;;;;;;;4953382;29;20216;-70
2023/11/15 07:30:55;;;;;;;1999.90;999.90;;;;;;;;;;4954556;29;20213;-69
2023/11/15 07:33:41;;;;;;;1999.90;999.90;;;;;;;;;;4948594;28;20236;-70
2023/11/15 07:36:29;;;;;;;1999.90;999.90;;;;;;;;;;4953958;29;20601;-70
2023/11/15 07:39:18;;;;;;;1999.90;999.90;;;;;;;;;;4946038;29;20249;-69
2023/11/15 07:42:04;;;;;;;1999.90;999.90;;;;;;;;;;4955002;28;20582;-71
2023/11/15 07:44:50;;;;;;;1999.90;999.90;;;;;;;;;;4957341;28;20358;-69
2023/11/15 07:47:35;;;;;;;1999.90;999.90;;;;;;;;;;4957113;29;20240;-69
2023/11/15 07:50:20;;;;;;;1999.90;999.90;;;;;;;;;;4957204;29;20694;-70
2023/11/15 07:53:05;;;;;;;1999.90;999.90;;;;;;;;;;4956914;28;20708;-69
2023/11/15 07:55:52;;;;;;;1999.90;999.90;;;;;;;;;;4956935;29;20204;-69
2023/11/15 07:58:37;;;;;;;1999.90;999.90;;;;;;;;;;4957216;29;20212;-70
2023/11/15 08:01:22;;;;;;;1999.90;999.90;;;;;;;;;;4956610;29;20214;-69
2023/11/15 08:04:07;;;;;;;1999.90;999.90;;;;;;;;;;4956840;28;20301;-69
2023/11/15 08:06:52;;;;;;;1999.90;999.90;;;;;;;;;;4956945;29;20586;-70
2023/11/15 08:09:37;;;;;;;1999.90;999.90;;;;;;;;;;4956797;29;20205;-70
2023/11/15 08:12:24;;;;;;;1999.90;999.90;;;;;;;;;;4956570;29;20333;-70
2023/11/15 08:15:15;;;;;;;1999.90;999.90;;;;;;;;;;4956379;29;20220;-68
2023/11/15 08:18:00;;;;;;;1999.90;999.90;;;;;;;;;;4956774;29;20209;-70
2023/11/15 08:20:46;;;;;;;1999.90;999.90;;;;;;;;;;4954404;28;25164;-70
2023/11/15 08:23:31;;;;;;;1999.90;999.90;;;;;;;;;;4956246;28;20728;-69
2023/11/15 08:26:19;;;;;;;1999.90;999.90;;;;;;;;;;4951804;28;20218;-69
2023/11/15 08:29:05;;;;;;;1999.90;999.90;;;;;;;;;;4952901;28;20212;-71
2023/11/15 08:31:50;;;;;;;1999.90;999.90;;;;;;;;;;4951801;28;20231;-70
2023/11/15 08:34:36;;;;;;;1999.90;999.90;;;;;;;;;;4946809;29;20233;-70
2023/11/15 08:37:21;;;;;;;1999.90;999.90;;;;;;;;;;4957496;28;20217;-70
2023/11/15 08:40:10;;;;;;;1999.90;999.90;;;;;;;;;;4957732;28;20280;-69
2023/11/15 08:42:56;;;;;;;1999.90;999.90;;;;;;;;;;4950608;28;20435;-70
2023/11/15 08:45:44;;;;;;;1999.90;999.90;;;;;;;;;;4952009;28;20213;-69
2023/11/15 08:48:29;;;;;;;1999.90;999.90;;;;;;;;;;4954830;29;20596;-70
2023/11/15 08:51:17;;;;;;;1999.90;999.90;;;;;;;;;;4955353;29;20209;-69
2023/11/15 08:54:02;;;;;;;1999.90;999.90;;;;;;;;;;4950614;28;20272;-70
2023/11/15 08:56:47;;;;;;;1999.90;999.90;;;;;;;;;;4941856;29;20221;-70
2023/11/15 08:59:34;;;;;;;1999.90;999.90;;;;;;;;;;4953504;29;20737;-70
2023/11/15 09:02:22;;;;;;;1999.90;999.90;;;;;;;;;;4952321;28;20293;-70
2023/11/15 09:05:08;;;;;;;1999.90;999.90;;;;;;;;;;4952536;28;20292;-69
2023/11/15 09:07:53;;;;;;;1999.90;999.90;;;;;;;;;;4951737;29;20210;-69
2023/11/15 09:10:38;;;;;;;1999.90;999.90;;;;;;;;;;4955289;28;20218;-69
2023/11/15 09:13:23;;;;;;;1999.90;999.90;;;;;;;;;;4953047;28;20246;-68
2023/11/15 09:16:09;;;;;;;1999.90;999.90;;;;;;;;;;4951034;29;20198;-69
2023/11/15 09:18:56;;;;;;;1999.90;999.90;;;;;;;;;;4950059;29;20704;-69
2023/11/15 09:21:41;;;;;;;1999.90;999.90;;;;;;;;;;4947870;29;20203;-68
2023/11/15 09:24:27;;;;;;;1999.90;999.90;;;;;;;;;;4952622;28;20605;-68
2023/11/15 09:27:12;;;;;;;1999.90;999.90;;;;;;;;;;4948651;29;20243;-69
2023/11/15 09:29:57;;;;;;;1999.90;999.90;;;;;;;;;;4952092;29;20309;-68
2023/11/15 09:32:42;;;;;;;1999.90;999.90;;;;;;;;;;4951519;29;20214;-69
2023/11/15 09:35:29;;;;;;;1999.90;999.90;;;;;;;;;;4951262;29;20223;-68
2023/11/15 09:38:14;;;;;;;1999.90;999.90;;;;;;;;;;4949794;29;20440;-69
2023/11/15 09:41:00;;;;;;;1999.90;999.90;;;;;;;;;;4951567;29;20296;-68
2023/11/15 09:43:51;;;;;;;1999.90;999.90;;;;;;;;;;4950872;28;20307;-69
2023/11/15 09:46:37;;;;;;;1999.90;999.90;;;;;;;;;;4951423;29;20233;-68
2023/11/15 09:49:25;;;;;;;1999.90;999.90;;;;;;;;;;4951886;29;20227;-70
2023/11/15 09:52:12;;;;;;;1999.90;999.90;;;;;;;;;;4951501;29;21261;-68
2023/11/15 09:54:58;;;;;;;1999.90;999.90;;;;;;;;;;4951256;28;20309;-70
2023/11/15 09:57:43;;;;;;;1999.90;999.90;;;;;;;;;;4948435;29;20219;-69
2023/11/15 10:00:30;;;;;;;1999.90;999.90;;;;;;;;;;4952525;29;20274;-69
2023/11/15 10:03:18;;;;;;;1999.90;999.90;;;;;;;;;;4952475;28;20276;-69
2023/11/15 10:06:05;;;;;;;1999.90;999.90;;;;;;;;;;4951312;28;20216;-69
2023/11/15 10:08:53;;;;;;;1999.90;999.90;;;;;;;;;;4950500;29;20653;-69
2023/11/15 10:11:38;;;;;;;1999.90;999.90;;;;;;;;;;4948524;29;20216;-69
2023/11/15 10:14:24;;;;;;;1999.90;999.90;;;;;;;;;;4951871;28;20321;-71
2023/11/15 10:17:09;;;;;;;1999.90;999.90;;;;;;;;;;4951495;28;20230;-71
2023/11/15 10:19:54;;;;;;;1999.90;999.90;;;;;;;;;;4947076;28;20259;-70
2023/11/15 10:22:44;;;;;;;1999.90;999.90;;;;;;;;;;4948999;29;20228;-70
2023/11/15 10:25:31;;;;;;;1999.90;999.90;;;;;;;;;;4947010;29;20228;-70
2023/11/15 10:28:17;;;;;;;1999.90;999.90;;;;;;;;;;4949992;29;20237;-71
2023/11/15 10:31:04;;;;;;;1999.90;999.90;;;;;;;;;;4947811;29;20207;-71
2023/11/15 10:33:50;;;;;;;1999.90;999.90;;;;;;;;;;4950167;28;20427;-70
2023/11/15 10:36:36;;;;;;;1999.90;999.90;;;;;;;;;;4949718;29;20248;-71
2023/11/15 10:39:21;;;;;;;1999.90;999.90;;;;;;;;;;4947681;29;20227;-69
2023/11/15 10:42:08;;;;;;;1999.90;999.90;;;;;;;;;;4951170;29;20216;-71
2023/11/15 10:44:58;;;;;;;1999.90;999.90;;;;;;;;;;4950829;28;20894;-70
2023/11/15 10:47:47;;;;;;;1999.90;999.90;;;;;;;;;;4951687;29;20215;-70
2023/11/15 10:50:33;;;;;;;1999.90;999.90;;;;;;;;;;4953337;29;20715;-71
2023/11/15 10:53:19;;;;;;;1999.90;999.90;;;;;;;;;;4952971;28;20226;-70
2023/11/15 10:56:05;;;;;;;1999.90;999.90;;;;;;;;;;4952846;29;20623;-69
2023/11/15 10:58:52;;;;;;;1999.90;999.90;;;;;;;;;;4952484;29;20432;-70
2023/11/15 11:01:38;;;;;;;1999.90;999.90;;;;;;;;;;4952657;29;20630;-70
2023/11/15 11:04:23;;;;;;;1999.90;999.90;;;;;;;;;;4952755;28;20243;-70
2023/11/15 11:07:10;;;;;;;1999.90;999.90;;;;;;;;;;4952997;29;20700;-71
2023/11/15 11:09:58;;;;;;;1999.90;999.90;;;;;;;;;;4948947;29;20212;-70
2023/11/15 11:12:44;;;;;;;1999.90;999.90;;;;;;;;;;4951927;29;20226;-71
2023/11/15 11:26:16;;;;;;;1999.90;999.90;;;;;;;;;;5121679;27;20581;-70
2023/11/15 11:29:02;;;;;;;1999.90;999.90;;;;;;;;;;5130013;28;20795;-70
2023/11/15 11:32:17;;;;;;;1999.90;999.90;;;;;;;;;;5129588;28;20279;-70
2023/11/15 11:35:30;;;;;;;1999.90;999.90;;;;;;;;;;5110069;28;20280;-69
2023/11/15 11:38:33;;;;;;;1999.90;999.90;;;;;;;;;;5108210;28;20218;-70
2023/11/15 11:41:20;;;;;;;1999.90;999.90;;;;;;;;;;5108942;28;20712;-70
2023/11/15 11:44:05;;;;;;;1999.90;999.90;;;;;;;;;;5109029;28;20598;-70
2023/11/15 11:47:01;;;;;;;1999.90;999.90;;;;;;;;;;5109024;28;20228;-69
2023/11/15 11:49:46;;;;;;;1999.90;999.90;;;;;;;;;;5108970;28;20759;-70
2023/11/15 11:52:31;;;;;;;1999.90;999.90;;;;;;;;;;5108677;28;20264;-70
2023/11/15 11:55:17;;;;;;;1999.90;999.90;;;;;;;;;;5107824;28;20226;-70
2023/11/15 11:58:03;;;;;;;1999.90;999.90;;;;;;;;;;5108959;28;20690;-69
2023/11/15 12:00:48;;;;;;;1999.90;999.90;;;;;;;;;;5108767;28;20272;-70
2023/11/15 12:03:35;;;;;;;1999.90;999.90;;;;;;;;;;5108572;28;20226;-70
2023/11/15 12:06:20;;;;;;;1999.90;999.90;;;;;;;;;;5108703;28;20768;-71
2023/11/15 12:09:10;;;;;;;1999.90;999.90;;;;;;;;;;5108611;28;20256;-71
2023/11/15 12:11:55;;;;;;;1999.90;999.90;;;;;;;;;;5107380;28;20581;-71
2023/11/15 12:14:48;;;;;;;1999.90;999.90;;;;;;;;;;5095093;28;20227;-68
2023/11/15 12:17:37;;;;;;;1999.90;999.90;;;;;;;;;;5105501;28;20209;-68
2023/11/15 12:20:28;;;;;;;1999.90;999.90;;;;;;;;;;5108550;28;20215;-72
2023/11/15 12:23:14;;;;;;;1999.90;999.90;;;;;;;;;;5108163;28;20230;-69
2023/11/15 12:26:01;;;;;;;1999.90;999.90;;;;;;;;;;5084038;28;20201;-69
2023/11/15 12:28:48;;;;;;;1999.90;999.90;;;;;;;;;;5093891;28;20264;-69
2023/11/15 12:31:34;;;;;;;1999.90;999.90;;;;;;;;;;5094384;28;20213;-69
2023/11/15 12:34:19;;;;;;;1999.90;999.90;;;;;;;;;;5094377;28;20229;-68
2023/11/15 12:37:06;;;;;;;1999.90;999.90;;;;;;;;;;5094287;28;20285;-68
2023/11/15 12:39:51;;;;;;;1999.90;999.90;;;;;;;;;;5094464;28;20221;-70
2023/11/15 12:42:36;;;;;;;1999.90;999.90;;;;;;;;;;5093404;28;20429;-68
2023/11/15 12:45:28;;;;;;;1999.90;999.90;;;;;;;;;;5093563;28;20229;-69
2023/11/15 12:48:14;;;;;;;1999.90;999.90;;;;;;;;;;5094065;28;20703;-68
2023/11/15 12:51:00;;;;;;;1999.90;999.90;;;;;;;;;;5094089;28;20209;-69
2023/11/15 12:53:46;;;;;;;1999.90;999.90;;;;;;;;;;5092174;28;20617;-68
2023/11/15 12:56:31;;;;;;;1999.90;999.90;;;;;;;;;;5082082;28;20715;-67
2023/11/15 12:59:17;;;;;;;1999.90;999.90;;;;;;;;;;5094121;28;20216;-68
2023/11/15 13:02:02;;;;;;;1999.90;999.90;;;;;;;;;;5093420;28;20205;-69
2023/11/15 13:04:51;;;;;;;1999.90;999.90;;;;;;;;;;5090924;28;20274;-69
2023/11/15 13:07:36;;;;;;;1999.90;999.90;;;;;;;;;;5093908;28;20737;-68
2023/11/15 13:10:21;;;;;;;1999.90;999.90;;;;;;;;;;5093656;28;20274;-70
2023/11/15 13:13:11;;;;;;;1999.90;999.90;;;;;;;;;;5090636;28;20299;-69
2023/11/15 13:15:57;;;;;;;1999.90;999.90;;;;;;;;;;5085112;28;20227;-69
2023/11/15 13:18:43;;;;;;;1999.90;999.90;;;;;;;;;;5093770;28;20211;-69
2023/11/15 13:21:29;;;;;;;1999.90;999.90;;;;;;;;;;5078089;28;20202;-69
2023/11/15 13:24:17;;;;;;;1999.90;999.90;;;;;;;;;;5069681;28;20278;-69
2023/11/15 13:27:02;;;;;;;1999.90;999.90;;;;;;;;;;5065388;28;20209;-68
2023/11/15 13:29:47;;;;;;;1999.90;999.90;;;;;;;;;;5068959;28;20629;-69
2023/11/15 13:32:33;;;;;;;1999.90;999.90;;;;;;;;;;5093030;28;20214;-68
2023/11/15 13:35:18;;;;;;;1999.90;999.90;;;;;;;;;;5093203;28;20275;-68
2023/11/15 13:38:06;;;;;;;1999.90;999.90;;;;;;;;;;5091545;28;20213;-69
2023/11/15 13:40:51;;;;;;;1999.90;999.90;;;;;;;;;;5093051;28;20250;-67
2023/11/15 13:43:36;;;;;;;1999.90;999.90;;;;;;;;;;5093446;28;20588;-67
2023/11/15 13:46:23;;;;;;;1999.90;999.90;;;;;;;;;;5081950;28;20700;-68
2023/11/15 13:49:08;;;;;;;1999.90;999.90;;;;;;;;;;5085271;28;20214;-68
2023/11/15 13:51:53;;;;;;;1999.90;999.90;;;;;;;;;;5072702;28;20255;-69
2023/11/15 13:54:40;;;;;;;1999.90;999.90;;;;;;;;;;5072799;28;20302;-69
2023/11/15 13:57:25;;;;;;;1999.90;999.90;;;;;;;;;;5076364;28;20230;-69
2023/11/15 14:00:14;;;;;;;1999.90;999.90;;;;;;;;;;5064568;28;20690;-69
2023/11/15 14:02:59;;;;;;;1999.90;999.90;;;;;;;;;;5070821;28;20390;-68
2023/11/15 14:05:44;;;;;;;1999.90;999.90;;;;;;;;;;5072753;28;20203;-68
2023/11/15 14:08:35;;;;;;;1999.90;999.90;;;;;;;;;;5077674;28;20259;-69
2023/11/15 14:11:21;;;;;;;1999.90;999.90;;;;;;;;;;5066202;28;20215;-69
2023/11/15 14:14:06;;;;;;;1999.90;999.90;;;;;;;;;;5067959;28;20232;-69
2023/11/15 14:16:52;;;;;;;1999.90;999.90;;;;;;;;;;5070751;28;20332;-68
2023/11/15 14:19:39;;;;;;;1999.90;999.90;;;;;;;;;;5072414;28;20212;-68
2023/11/15 14:22:24;;;;;;;1999.90;999.90;;;;;;;;;;5074707;28;20210;-69
2023/11/15 14:25:20;;;;;;;1999.90;999.90;;;;;;;;;;5064417;28;20315;-69
2023/11/15 14:28:06;;;;;;;1999.90;999.90;;;;;;;;;;5072389;28;20226;-69
2023/11/15 14:30:51;;;;;;;1999.90;999.90;;;;;;;;;;5076290;28;20261;-67
2023/11/15 14:33:38;;;;;;;1999.90;999.90;;;;;;;;;;5074069;28;20322;-68
2023/11/15 14:36:26;;;;;;;1999.90;999.90;;;;;;;;;;5066018;28;20209;-68
2023/11/15 14:39:11;;;;;;;1999.90;999.90;;;;;;;;;;5071959;28;20696;-68
2023/11/15 14:41:59;;;;;;;1999.90;999.90;;;;;;;;;;5076838;28;20232;-68
2023/11/15 14:44:45;;;;;;;1999.90;999.90;;;;;;;;;;5075831;28;20244;-68
2023/11/15 14:47:30;;;;;;;1999.90;999.90;;;;;;;;;;5072019;28;20581;-68
2023/11/15 14:50:15;;;;;;;1999.90;999.90;;;;;;;;;;5068673;28;20214;-68
2023/11/15 14:53:18;;;;;;;1999.90;999.90;;;;;;;;;;5086602;28;20205;-69
2023/11/15 14:56:03;;;;;;;1999.90;999.90;;;;;;;;;;5089621;28;20217;-68
2023/11/15 14:58:48;;;;;;;1999.90;999.90;;;;;;;;;;5085167;28;20407;-69
2023/11/15 15:01:35;;;;;;;1999.90;999.90;;;;;;;;;;5086019;28;20253;-69
2023/11/15 15:04:20;;;;;;;1999.90;999.90;;;;;;;;;;5091862;28;20632;-69
2023/11/15 15:07:06;;;;;;;1999.90;999.90;;;;;;;;;;5091806;28;20351;-69
2023/11/15 15:09:51;;;;;;;1999.90;999.90;;;;;;;;;;5089653;28;20263;-68
2023/11/15 15:12:36;;;;;;;1999.90;999.90;;;;;;;;;;5075946;28;20228;-69
2023/11/15 15:15:21;;;;;;;1999.90;999.90;;;;;;;;;;5084809;28;20228;-69
2023/11/15 15:18:07;;;;;;;1999.90;999.90;;;;;;;;;;5090844;28;20211;-69
2023/11/15 15:20:53;;;;;;;1999.90;999.90;;;;;;;;;;5091543;28;20212;-66
2023/11/15 15:23:38;;;;;;;1999.90;999.90;;;;;;;;;;5089850;28;30187;-68
2023/11/15 15:26:24;;;;;;;1999.90;999.90;;;;;;;;;;5078159;28;20203;-69
2023/11/15 15:29:09;;;;;;;1999.90;999.90;;;;;;;;;;5091664;28;20212;-69
2023/11/15 15:31:55;;;;;;;1999.90;999.90;;;;;;;;;;5091478;28;20601;-69
2023/11/15 15:34:42;;;;;;;1999.90;999.90;;;;;;;;;;5079209;28;20334;-69
2023/11/15 15:37:28;;;;;;;1999.90;999.90;;;;;;;;;;5090777;28;20334;-69
2023/11/15 15:40:16;;;;;;;1999.90;999.90;;;;;;;;;;5091565;28;20211;-70
2023/11/15 15:43:02;;;;;;;1999.90;999.90;;;;;;;;;;5091216;28;20220;-69
2023/11/15 15:45:46;;;;;;;1999.90;999.90;;;;;;;;;;5084894;28;20414;-69
2023/11/15 15:48:31;;;;;;;1999.90;999.90;;;;;;;;;;5091575;28;20712;-68
2023/11/15 15:51:18;;;;;;;1999.90;999.90;;;;;;;;;;5091120;28;20204;-69
2023/11/15 15:54:03;;;;;;;1999.90;999.90;;;;;;;;;;5090452;28;20236;-69
2023/11/15 15:56:49;;;;;;;1999.90;999.90;;;;;;;;;;5091430;28;20204;-69
2023/11/15 15:59:33;;;;;;;1999.90;999.90;;;;;;;;;;5091457;28;20250;-69
2023/11/15 16:02:18;;;;;;;1999.90;999.90;;;;;;;;;;5094866;28;20737;-69
2023/11/15 16:05:03;;;;;;;1999.90;999.90;;;;;;;;;;5095086;28;20224;-69
2023/11/15 16:07:50;;;;;;;1999.90;999.90;;;;;;;;;;5094875;28;20211;-69
2023/11/15 16:10:35;;;;;;;1999.90;999.90;;;;;;;;;;5094238;28;20334;-69
2023/11/15 16:13:20;;;;;;;1999.90;999.90;;;;;;;;;;5089469;28;20605;-69
2023/11/15 16:16:05;;;;;;;1999.90;999.90;;;;;;;;;;5094709;28;20231;-69
2023/11/15 16:18:51;;;;;;;1999.90;999.90;;;;;;;;;;5083242;28;20211;-69
2023/11/15 16:21:36;;;;;;;1999.90;999.90;;;;;;;;;;5094852;28;20203;-70
2023/11/15 16:24:22;;;;;;;1999.90;999.90;;;;;;;;;;5080501;28;20361;-69
2023/11/15 16:27:07;;;;;;;1999.90;999.90;;;;;;;;;;5093765;28;20211;-68
2023/11/15 16:29:52;;;;;;;1999.90;999.90;;;;;;;;;;5094720;28;20337;-67
2023/11/15 16:32:37;;;;;;;1999.90;999.90;;;;;;;;;;5095460;28;20595;-69
2023/11/15 16:35:22;;;;;;;1999.90;999.90;;;;;;;;;;5098988;28;20254;-69
2023/11/15 16:38:07;;;;;;;1999.90;999.90;;;;;;;;;;5099183;28;20207;-70
2023/11/15 16:40:55;;;;;;;1999.90;999.90;;;;;;;;;;5084691;28;20294;-67
2023/11/15 16:43:40;;;;;;;1999.90;999.90;;;;;;;;;;5067957;28;20502;-69
2023/11/15 16:46:25;;;;;;;1999.90;999.90;;;;;;;;;;5056242;28;20457;-69
2023/11/15 16:49:10;;;;;;;1999.90;999.90;;;;;;;;;;5075802;28;20221;-69
2023/11/15 16:51:55;;;;;;;1999.90;999.90;;;;;;;;;;5093986;28;20211;-69
2023/11/15 16:54:41;;;;;;;1999.90;999.90;;;;;;;;;;5083227;28;20235;-69
2023/11/15 16:57:28;;;;;;;1999.90;999.90;;;;;;;;;;5081719;28;20585;-68
2023/11/15 17:00:14;;;;;;;1999.90;999.90;;;;;;;;;;5092571;28;20212;-69
2023/11/15 17:03:00;;;;;;;1999.90;999.90;;;;;;;;;;5094287;28;20211;-68
2023/11/15 17:05:45;;;;;;;1999.90;999.90;;;;;;;;;;5094433;28;20723;-69
2023/11/15 17:08:32;;;;;;;1999.90;999.90;;;;;;;;;;5094389;28;20203;-68
2023/11/15 17:11:17;;;;;;;1999.90;999.90;;;;;;;;;;5093678;28;20220;-68
2023/11/15 17:14:04;;;;;;;1999.90;999.90;;;;;;;;;;5087776;28;20247;-68
2023/11/15 17:16:49;;;;;;;1999.90;999.90;;;;;;;;;;5093592;28;20224;-68
2023/11/15 17:19:34;;;;;;;1999.90;999.90;;;;;;;;;;5093802;28;20232;-70
2023/11/15 17:22:19;;;;;;;1999.90;999.90;;;;;;;;;;5093404;28;20208;-68
2023/11/15 17:25:04;;;;;;;1999.90;999.90;;;;;;;;;;5082463;28;20255;-69
2023/11/15 17:27:49;;;;;;;1999.90;999.90;;;;;;;;;;5068785;28;20213;-68
2023/11/15 17:30:36;;;;;;;1999.90;999.90;;;;;;;;;;5053563;28;20205;-69
2023/11/15 17:33:20;;;;;;;1999.90;999.90;;;;;;;;;;5071563;28;20603;-68
2023/11/15 17:36:06;;;;;;;1999.90;999.90;;;;;;;;;;5072640;28;20220;-68
2023/11/15 17:38:52;;;;;;;1999.90;999.90;;;;;;;;;;5091330;28;20330;-69
2023/11/15 17:41:38;;;;;;;1999.90;999.90;;;;;;;;;;5086548;28;20588;-67
2023/11/15 17:44:23;;;;;;;1999.90;999.90;;;;;;;;;;5076208;28;20833;-68
2023/11/15 17:47:11;;;;;;;1999.90;999.90;;;;;;;;;;5071920;28;20205;-69
2023/11/15 17:49:56;;;;;;;1999.90;999.90;;;;;;;;;;5076416;28;20575;-69